Flight Track Log - Related Links

Times and Time Zones

All times are in EDT time to prevent confusion due to time zone crossing. See the EGF3979 flight status page for this flight to view local times or setup timezone preferences in your user account.

Time Position Orientation Groundspeed Altitude Reporting Facility
EDT Latitude Longitude Course Direction KTS MPH feet Rate Location/Type
Mon 06:35:04 AM 43.6500 -79.6833 277° West 140 161 2,200  Level Toronto Center
Mon 06:36:00 AM 43.6675 -79.8558 281° West  Level FlightAware Approximate
Mon 06:36:04 AM 43.6167 -79.7333 227° Southwest 200 230 4,100  Level Toronto Center
Mon 06:37:00 AM 43.6843 -79.9780 277° West  Level FlightAware Approximate
Mon 06:37:04 AM 43.6167 -79.8167 270° West 230 265 6,700  Level Toronto Center
Mon 06:38:00 AM 43.6946 -80.1016 277° West  Level FlightAware Approximate
Mon 06:38:04 AM 43.6333 -79.9167 283° West 240 276 9,100  Level Toronto Center
Mon 06:39:00 AM 43.7008 -80.2255 277° West  Level FlightAware Approximate
Mon 06:39:04 AM 43.6500 -80.0000 285° West 250 288 11,100  Level Toronto Center
Mon 06:40:00 AM 43.7127 -80.3564 277° West  Level FlightAware Approximate
Mon 06:40:04 AM 43.6167 -80.1167 248° West 290 334 12,600  Level Toronto Center
Mon 06:41:04 AM 43.6000 -80.2333 259° West 310 357 14,400 1,650 Climbing Toronto Center
Mon 06:42:04 AM 43.5833 -80.3500 259° West 320 368 15,900 1,400 Climbing Toronto Center
Mon 06:43:04 AM 43.5667 -80.4667 259° West 330 380 17,200 1,450 Climbing Toronto Center
Mon 06:44:04 AM 43.5500 -80.6000 260° West 340 391 18,800 1,500 Climbing Toronto Center
Mon 06:45:04 AM 43.5167 -80.7167 249° West 350 403 20,200 1,400 Climbing Toronto Center
Mon 06:46:04 AM 43.4833 -80.8500 251° West 360 414 21,600 1,400 Climbing Toronto Center
Mon 06:47:04 AM 43.4667 -81.0167 262° West 370 426 23,000 1,250 Climbing Toronto Center
Mon 06:48:04 AM 43.4333 -81.1333 249° West 370 426 24,100 1,150 Climbing Toronto Center
Mon 06:49:04 AM 43.4000 -81.2833 253° West 380 437 25,300 1,300 Climbing Toronto Center
Mon 06:50:04 AM 43.3500 -81.4000 240° Southwest 380 437 26,700 1,300 Climbing Toronto Center
Mon 06:51:04 AM 43.3167 -81.5333 251° West 380 437 27,900 1,000 Climbing Toronto Center
Mon 06:52:04 AM 43.2833 -81.7000 255° West 390 449 28,700 1,200 Climbing Toronto Center
Mon 06:53:04 AM 43.2667 -81.8333 260° West 370 426 30,300 1,600 Climbing Toronto Center
Mon 06:54:04 AM 43.2333 -81.9667 251° West 360 414 31,900 850 Climbing Toronto Center
Mon 06:55:04 AM 43.2167 -82.1000 260° West 370 426 32,000 50 Climbing Toronto Center
Mon 06:56:04 AM 43.2000 -82.2333 260° West 400 460 32,000  Level Toronto Center
Mon 06:57:04 AM 43.1833 -82.4000 262° West 420 483 32,000  Level Toronto Center
Mon 06:58:04 AM 43.1667 -82.5667 262° West 420 483 32,000  Level Toronto Center
Mon 06:58:45 AM 43.1497 -82.6861 259° West 428 493 32,000  Level Cleveland Center
Mon 06:59:45 AM 43.1278 -82.8503 260° West 428 493 32,000  Level Cleveland Center
Mon 07:00:45 AM 43.1058 -83.0117 260° West 428 493 32,000  Level Cleveland Center
Mon 07:01:45 AM 43.0856 -83.1700 260° West 428 493 32,000  Level Cleveland Center
Mon 07:02:45 AM 43.0611 -83.3283 258° West 428 493 32,000  Level Cleveland Center
Mon 07:03:45 AM 43.0408 -83.4778 260° West 433 498 32,000  Level Cleveland Center
Mon 07:04:45 AM 43.0178 -83.6417 259° West 433 498 32,000  Level Cleveland Center
Mon 07:05:45 AM 42.9947 -83.7994 259° West 433 498 32,000  Level Cleveland Center
Mon 07:06:45 AM 42.9733 -83.9658 260° West 433 498 32,000  Level Cleveland Center
Mon 07:07:45 AM 42.9497 -84.1289 259° West 438 504 32,000  Level Cleveland Center
Mon 07:08:45 AM 42.9258 -84.2894 259° West 438 504 32,000  Level Cleveland Center
Mon 07:09:36 AM 42.9069 -84.4289 260° West 438 504 32,000  Level Chicago Center
Mon 07:10:37 AM 42.8831 -84.5925 259° West 440 506 32,000  Level Chicago Center
Mon 07:11:38 AM 42.8656 -84.7589 262° West 444 511 32,000  Level Chicago Center
Mon 07:12:39 AM 42.8486 -84.9217 262° West 437 503 32,000  Level Chicago Center
Mon 07:13:40 AM 42.8317 -85.0864 262° West 440 506 32,000  Level Chicago Center
Mon 07:14:41 AM 42.8144 -85.2475 262° West 431 496 32,000  Level Chicago Center
Mon 07:15:42 AM 42.7975 -85.4019 262° West 415 478 32,000 -98 Level Chicago Center
Mon 07:16:43 AM 42.7772 -85.5597 260° West 421 484 31,800 -1,426 Descending Chicago Center
Mon 07:17:44 AM 42.7464 -85.7236 256° West 440 506 29,100 -2,852 Descending Chicago Center
Mon 07:18:45 AM 42.7175 -85.8811 256° West 430 495 26,000 -3,344 Descending Chicago Center
Mon 07:19:46 AM 42.6839 -86.0667 256° West 420 483 22,300 -2,902 Descending Chicago Center
Mon 07:20:47 AM 42.6556 -86.2186 256° West 416 479 20,100 -1,279 Descending Chicago Center
Mon 07:21:48 AM 42.6300 -86.3581 256° West 389 448 19,700 -683 Descending Chicago Center
Mon 07:22:50 AM 42.6031 -86.4989 255° West 385 443 18,700 -927 Descending Chicago Center
Mon 07:23:51 AM 42.5767 -86.6367 255° West 380 437 17,800 -836 Descending Chicago Center
Mon 07:24:52 AM 42.5539 -86.7611 256° West 368 423 17,000 -683 Descending Chicago Center
Mon 07:25:54 AM 42.5147 -86.8967 249° West 363 418 16,400 -1,707 Descending Chicago Center
Mon 07:26:55 AM 42.4794 -87.0294 250° West 373 429 13,500 -2,852 Descending Chicago Center
Mon 07:27:56 AM 42.4442 -87.1511 249° West 352 405 10,600 -1,902 Descending Chicago Center
Mon 07:28:58 AM 42.4172 -87.2539 250° West 292 336 9,600 -1,220 Descending Chicago Center
Mon 07:29:59 AM 42.3781 -87.3592 243° Southwest 265 305 8,100 -1,268 Descending Chicago Center
Mon 07:31:01 AM 42.3467 -87.4356 241° Southwest 262 302 7,000 -537 Descending Chicago Center
Mon 07:32:02 AM 42.3144 -87.5156 241° Southwest 245 282 7,000  Level Chicago Center
Mon 07:33:04 AM 42.2608 -87.6075 232° Southwest 266 306 7,000 -341 Level Chicago Center
Mon 07:34:05 AM 42.2019 -87.6689 218° Southwest 271 312 6,300 -689 Descending Chicago Center

Login

Don't have an account? Register now (free) for customized features, flight alerts, and more!